WetterOnline ( http://www.wetteronline.de )

Wetter aktuell Pforzheim

Aktuelles Wetter: Mühlacker (245m)

6-stündlich | Neueste Meldungen
Ortszeit Temperatur Wetter
Sa, 20.10. 14:00 17.1° C wolkenlos
Sa, 20.10. 8:00 4.8° C wolkenlos
Sa, 20.10. 2:00 4.7° C wolkenlos
Fr, 19.10. 20:00 10.3° C wolkenlos
Fr, 19.10. 14:00 17.7° C wolkenlos
Fr, 19.10. 8:00 6.1° C Nebel
Fr, 19.10. 2:00 10.8° C wolkenlos
Do, 18.10. 20:00 16.9° C wolkenlos
Ortszeit Temperatur Wetter
Sa, 20.10. 14:00 17.1° C wolkenlos
Sa, 20.10. 13:50 17.1° C wolkenlos
Sa, 20.10. 13:40 17.2° C wolkenlos
Sa, 20.10. 13:30 17.0° C fast wolkenlos
Sa, 20.10. 13:20 17.0° C fast wolkenlos
Sa, 20.10. 13:10 16.6° C leicht bewölkt
Sa, 20.10. 13:00 15.9° C bedeckt
Sa, 20.10. 12:30 14.6° C bedeckt
Sa, 20.10. 12:00 13.4° C fast wolkenlos
Sa, 20.10. 11:30 12.3° C bewölkt
Sa, 20.10. 11:00 10.6° C leicht bewölkt
Ortszeit Relative Feuchte Sichtweite
Sa, 20.10. 14:00 54% 12 km
Sa, 20.10. 8:00 97% 1.3 km
Sa, 20.10. 2:00 96% 1.2 km
Fr, 19.10. 20:00 86% 4.7 km
Fr, 19.10. 14:00 60% 4.8 km
Fr, 19.10. 8:00 100% <100 m
Fr, 19.10. 2:00 92% 3.5 km
Do, 18.10. 20:00 65% 18 km
Ortszeit Relative Feuchte Sichtweite
Sa, 20.10. 14:00 54% 12 km
Sa, 20.10. 13:50 54% -
Sa, 20.10. 13:40 54% -
Sa, 20.10. 13:30 56% 11 km
Sa, 20.10. 13:20 56% -
Sa, 20.10. 13:10 57% -
Sa, 20.10. 13:00 62% 6 km
Sa, 20.10. 12:30 72% 3.3 km
Sa, 20.10. 12:00 76% 3.0 km
Sa, 20.10. 11:30 81% 2.6 km
Sa, 20.10. 11:00 85% 2.5 km
Ortszeit Niederschlagsmenge Niederschlagsart
Sa, 20.10. 14:00 0.0 l/m2 in 6 Std. -
Sa, 20.10. 8:00 0.0 l/m2 in 12 Std. -
Sa, 20.10. 2:00 0.0 l/m2 in 6 Std. -
Fr, 19.10. 20:00 0.0 l/m2 in 12 Std. -
Fr, 19.10. 14:00 0.0 l/m2 in 6 Std. -
Fr, 19.10. 8:00 0.0 l/m2 in 12 Std. -
Fr, 19.10. 2:00 0.0 l/m2 in 6 Std. -
Do, 18.10. 20:00 0.0 l/m2 in 12 Std. -
Ortszeit Niederschlagsmenge Niederschlagsart
Sa, 20.10. 14:00 0.0 l/m2 in 1 Std. -
Sa, 20.10. 13:50 keine Meldung -
Sa, 20.10. 13:40 keine Meldung -
Sa, 20.10. 13:30 0.0 l/m2 in 1 Std. -
Sa, 20.10. 13:20 keine Meldung -
Sa, 20.10. 13:10 keine Meldung -
Sa, 20.10. 13:00 0.0 l/m2 in 1 Std. -
Sa, 20.10. 12:30 0.0 l/m2 in 1 Std. -
Sa, 20.10. 12:00 0.0 l/m2 in 1 Std. -
Sa, 20.10. 11:30 0.0 l/m2 in 1 Std. -
Sa, 20.10. 11:00 0.0 l/m2 in 1 Std. -
Ortszeit Stärke Spitze Richtung
km/h Bft. km/h Grad Sektor
Sa, 20.10. 14:00 11 2 22 90° O
Sa, 20.10. 8:00 0 0 4 - -
Sa, 20.10. 2:00 0 0 4 - -
Fr, 19.10. 20:00 0 0 18 - -
Fr, 19.10. 14:00 6 1 11 160° S
Fr, 19.10. 8:00 4 1 7 10° N
Fr, 19.10. 2:00 4 1 22 240° SW
Do, 18.10. 20:00 11 2 25 60° NO
Ortszeit Stärke Spitze Richtung
km/h Bft. km/h Grad Sektor
Sa, 20.10. 14:00 11 2 22 90° O
Sa, 20.10. 13:50 11 2 - 90° O
Sa, 20.10. 13:40 9 2 - 80° O
Sa, 20.10. 13:30 11 2 22 60° NO
Sa, 20.10. 13:20 11 2 - 60° NO
Sa, 20.10. 13:10 13 3 - 50° NO
Sa, 20.10. 13:00 7 2 14 60° NO
Sa, 20.10. 12:30 4 1 7 240° SW
Sa, 20.10. 12:00 4 1 4 310° NW
Sa, 20.10. 11:30 2 1 4 40° NO
Sa, 20.10. 11:00 2 1 6 120° SO
Ortszeit Untergrenze Bedeckung Gattung
total tief tief mittel hoch
Sa, 20.10. 14:00 - 0/8 0/8 - - -
Sa, 20.10. 8:00 - 0/8 0/8 - - -
Sa, 20.10. 2:00 - 0/8 0/8 - - -
Fr, 19.10. 20:00 - 0/8 0/8 - - -
Fr, 19.10. 14:00 - 0/8 0/8 - - -
Fr, 19.10. 8:00 - 8/8 - - - -
Fr, 19.10. 2:00 - 0/8 0/8 - - -
Do, 18.10. 20:00 - 0/8 0/8 - - -
Ortszeit Bedeckungsgrad in Achtel und Wolkenuntergrenze
Sa, 20.10. 14:00 keine Wolken
Sa, 20.10. 13:50 keine Wolken
Sa, 20.10. 13:40 keine Wolken
Sa, 20.10. 13:30 1(1350m)
Sa, 20.10. 13:20 1(1350m)
Sa, 20.10. 13:10 4(1350m)
Sa, 20.10. 13:00 9 9 9
Sa, 20.10. 12:30 8(1350m) 9 9
Sa, 20.10. 12:00 1(1350m) 9 9
Sa, 20.10. 11:30 5(1350m) 9 9
Sa, 20.10. 11:00 2(1320m)
Ortszeit Luftdruck NN (hPa) Tendenz (hPa in 3 Std.)
Sa, 20.10. 14:00 1029 - 0,3
Sa, 20.10. 8:00 1028 + 1,5
Sa, 20.10. 2:00 1026 + 0,4
Fr, 19.10. 20:00 1023 + 1,0
Fr, 19.10. 14:00 1022 - 0,8
Fr, 19.10. 8:00 1023 + 0,7
Fr, 19.10. 2:00 1022 + 0,1
Do, 18.10. 20:00 1020 + 1,3
Ortszeit Luftdruck NN (hPa) Tendenz (hPa in 3 Std.)
Sa, 20.10. 14:00 1029 - 0,3
Sa, 20.10. 13:50 1029 keine Meldung
Sa, 20.10. 13:40 1029 keine Meldung
Sa, 20.10. 13:30 1029 + 0,2
Sa, 20.10. 13:20 1029 keine Meldung
Sa, 20.10. 13:10 1029 keine Meldung
Sa, 20.10. 13:00 1029 + 0,6
Sa, 20.10. 12:30 1029 + 1,1
Sa, 20.10. 12:00 1030 + 1,7
Sa, 20.10. 11:30 1029 + 1,7
Sa, 20.10. 11:00 1030 + 2,2
Ortszeit Schneehöhe (cm)
Sa, 20.10. 14:00 0
Sa, 20.10. 8:00 0
Sa, 20.10. 2:00 0
Fr, 19.10. 20:00 0
Fr, 19.10. 14:00 0
Fr, 19.10. 8:00 0
Fr, 19.10. 2:00 0
Do, 18.10. 20:00 0
Ortszeit Schneehöhe (cm)
Sa, 20.10. 14:00 0
Sa, 20.10. 13:50 0
Sa, 20.10. 13:40 0
Sa, 20.10. 13:30 0
Sa, 20.10. 13:20 0
Sa, 20.10. 13:10 0
Sa, 20.10. 13:00 0
Sa, 20.10. 12:30 0
Sa, 20.10. 12:00 0
Sa, 20.10. 11:30 0
Sa, 20.10. 11:00 0
Link zu dieser Seite / Seite empfehlen

Das Wetter in ...